Time;durP1;ratioP1;P1;durP2;ratioP2;P2;SDS_P1;SDS_P2;PMS_P1;PMS_P2;Temp;Humidity;BMP_temperature;BMP_pressure;BME280_temperature;BME280_humidity;BME280_pressure;Samples;Min_cycle;Max_cycle;Signal;HPM_P1;HPM_P2
2021/07/29 00:01:32;;;;;;;7.43;4.03;;;16.70;99.90;;;;;;20671852;28;20042;-79
2021/07/29 00:11:34;;;;;;;7.97;3.90;;;16.80;99.90;;;;;;20671472;28;20477;-79
2021/07/29 00:21:37;;;;;;;7.80;3.13;;;16.40;99.90;;;;;;20684123;28;20066;-79
2021/07/29 00:31:38;;;;;;;6.95;4.03;;;16.50;99.90;;;;;;20657720;28;20038;-79
2021/07/29 00:41:38;;;;;;;5.13;3.40;;;15.70;99.90;;;;;;20688405;28;20103;-79
2021/07/29 00:51:40;;;;;;;13.10;3.90;;;15.90;99.90;;;;;;20687252;28;20032;-79
2021/07/29 01:01:41;;;;;;;9.57;3.35;;;16.00;99.90;;;;;;20685052;28;20030;-79
2021/07/29 01:11:43;;;;;;;4.63;2.50;;;16.00;99.90;;;;;;20683179;28;20109;-79
2021/07/29 01:21:44;;;;;;;7.93;3.28;;;15.80;99.90;;;;;;20684434;28;20030;-79
2021/07/29 01:31:45;;;;;;;5.27;3.50;;;15.20;99.90;;;;;;20684554;28;20066;-79
2021/07/29 01:41:45;;;;;;;7.70;3.80;;;14.70;99.90;;;;;;20665380;28;20117;-78
2021/07/29 01:51:46;;;;;;;8.50;3.40;;;15.10;99.90;;;;;;20682950;28;20408;-78
2021/07/29 02:01:47;;;;;;;9.03;3.30;;;15.40;99.90;;;;;;20665767;28;20053;-79
2021/07/29 02:11:52;;;;;;;5.73;3.77;;;15.50;99.90;;;;;;20667705;28;20034;-79
2021/07/29 02:21:52;;;;;;;4.85;3.33;;;15.50;99.90;;;;;;20684010;28;20042;-79
2021/07/29 02:31:53;;;;;;;9.60;3.53;;;15.40;99.90;;;;;;20685213;28;20545;-79
2021/07/29 02:41:54;;;;;;;6.27;3.73;;;15.10;99.90;;;;;;20722775;23;20446;-75
2021/07/29 02:51:55;;;;;;;4.63;3.60;;;15.40;99.90;;;;;;20825277;28;20025;-75
2021/07/29 03:01:56;;;;;;;18.53;4.17;;;15.40;99.90;;;;;;20824935;28;20037;-75
2021/07/29 03:11:58;;;;;;;7.13;3.70;;;14.80;99.90;;;;;;20824708;28;20034;-76
2021/07/29 03:21:59;;;;;;;8.98;3.65;;;15.00;99.90;;;;;;20824121;28;20391;-76
2021/07/29 03:32:00;;;;;;;9.73;4.00;;;15.30;99.90;;;;;;20823444;28;20045;-76
2021/07/29 03:42:01;;;;;;;15.07;3.90;;;15.20;99.90;;;;;;20824379;28;20040;-76
2021/07/29 03:52:02;;;;;;;11.70;4.10;;;15.00;99.90;;;;;;20871182;28;20037;-76
2021/07/29 04:02:10;;;;;;;;;;;15.00;99.90;;;;;;20903463;28;20041;-75
2021/07/29 04:12:11;;;;;;;8.57;5.00;;;14.80;99.90;;;;;;20901901;28;19909;-76
2021/07/29 04:22:12;;;;;;;12.13;4.57;;;14.90;99.90;;;;;;20918786;28;20025;-76
2021/07/29 04:32:14;;;;;;;11.23;4.43;;;15.10;99.90;;;;;;20918033;28;20351;-76
2021/07/29 04:42:15;;;;;;;11.38;3.25;;;15.20;99.90;;;;;;20917445;28;20029;-77
2021/07/29 04:52:16;;;;;;;5.50;3.90;;;15.40;99.90;;;;;;20916990;28;20108;-76
2021/07/29 05:02:20;;;;;;;7.43;3.83;;;15.50;99.90;;;;;;20914246;28;20029;-76
2021/07/29 05:12:20;;;;;;;9.23;4.30;;;15.60;99.90;;;;;;20914058;28;20049;-76
2021/07/29 05:22:21;;;;;;;5.43;3.80;;;15.80;99.90;;;;;;20914332;28;20040;-76
2021/07/29 05:32:22;;;;;;;5.73;3.50;;;16.00;99.90;;;;;;20910111;28;20025;-76
2021/07/29 05:42:24;;;;;;;5.03;3.77;;;16.50;99.90;;;;;;20874363;28;20041;-76
2021/07/29 05:52:26;;;;;;;5.07;4.00;;;16.70;99.90;;;;;;20812439;28;20562;-76
2021/07/29 06:02:27;;;;;;;8.23;3.90;;;16.90;99.90;;;;;;20828414;28;20033;-76
2021/07/29 06:12:28;;;;;;;7.13;3.77;;;17.10;99.90;;;;;;20810250;28;20132;-76
2021/07/29 06:22:29;;;;;;;6.57;4.30;;;17.30;99.90;;;;;;20808913;28;20063;-76
2021/07/29 06:32:29;;;;;;;8.00;4.07;;;17.30;99.90;;;;;;20808887;28;20040;-76
2021/07/29 06:42:30;;;;;;;8.40;4.10;;;17.50;99.90;;;;;;20808457;28;20036;-76
2021/07/29 06:52:31;;;;;;;9.70;4.73;;;17.80;99.90;;;;;;20807952;28;20025;-76
2021/07/29 07:02:32;;;;;;;10.57;4.97;;;18.00;99.90;;;;;;20824804;28;20064;-76
2021/07/29 07:12:36;;;;;;;10.67;4.73;;;18.20;99.90;;;;;;20829894;28;20527;-76
2021/07/29 07:22:37;;;;;;;8.35;4.10;;;18.50;99.90;;;;;;20806373;28;20159;-76
2021/07/29 07:32:38;;;;;;;5.33;2.97;;;18.80;99.90;;;;;;20834174;28;20061;-76
2021/07/29 07:42:39;;;;;;;4.90;2.57;;;20.00;99.90;;;;;;20840642;28;20025;-76
2021/07/29 07:52:39;;;;;;;5.20;2.43;;;20.20;99.90;;;;;;20840179;28;20025;-76
2021/07/29 08:02:40;;;;;;;4.30;2.33;;;20.60;99.90;;;;;;20865642;28;20028;-76
2021/07/29 08:12:41;;;;;;;5.73;2.03;;;20.70;99.90;;;;;;20881472;28;20025;-75
2021/07/29 08:22:42;;;;;;;5.07;2.40;;;20.50;99.90;;;;;;20876252;28;20040;-75
2021/07/29 08:32:46;;;;;;;6.93;2.50;;;21.00;99.90;;;;;;20856382;28;20059;-75
2021/07/29 08:42:48;;;;;;;3.60;2.33;;;21.00;99.90;;;;;;20858161;22;20045;-80
2021/07/29 08:52:50;;;;;;;6.10;2.63;;;22.40;99.90;;;;;;20805109;28;20276;-81
2021/07/29 09:02:51;;;;;;;4.30;2.63;;;22.10;99.90;;;;;;20732191;28;20050;-81
2021/07/29 09:13:17;;;;;;;5.60;2.87;;;22.50;99.90;;;;;;20748247;28;20115;-82
2021/07/29 09:23:21;;;;;;;5.68;2.53;;;22.00;99.90;;;;;;20747888;28;20404;-79
2021/07/29 09:33:22;;;;;;;5.97;2.55;;;22.40;99.90;;;;;;20747936;28;20030;-80
2021/07/29 09:43:25;;;;;;;4.47;2.63;;;22.00;99.90;;;;;;20744705;28;20034;-80
2021/07/29 09:53:33;;;;;;;6.22;2.58;;;21.90;99.90;;;;;;20741803;28;20041;-80
2021/07/29 10:03:35;;;;;;;5.75;2.58;;;22.60;99.90;;;;;;20734819;28;20022;-80
2021/07/29 10:13:40;;;;;;;5.05;3.15;;;22.10;99.90;;;;;;20724445;28;20049;-80
2021/07/29 10:23:52;;;;;;;4.07;2.78;;;23.20;99.90;;;;;;20720032;28;20861;-80
2021/07/29 10:34:26;;;;;;;4.93;2.63;;;24.00;99.90;;;;;;20738013;28;20394;-80
2021/07/29 10:44:42;;;;;;;4.88;2.60;;;23.70;99.90;;;;;;20740508;28;20040;-80
2021/07/29 10:54:45;;;;;;;4.88;3.15;;;22.90;99.90;;;;;;20641318;28;20465;-80
2021/07/29 11:04:59;;;;;;;6.07;3.05;;;25.00;99.90;;;;;;20729169;28;20088;-80
2021/07/29 11:15:00;;;;;;;6.15;2.83;;;24.50;99.90;;;;;;20737049;28;20033;-79
2021/07/29 11:25:08;;;;;;;5.82;2.95;;;24.10;99.90;;;;;;20758093;28;20042;-80
2021/07/29 11:35:15;;;;;;;3.88;2.38;;;25.50;99.90;;;;;;20789027;28;20037;-81
2021/07/29 11:45:25;;;;;;;4.13;2.75;;;25.30;99.90;;;;;;20779566;28;20611;-80
2021/07/29 11:55:25;;;;;;;9.85;2.50;;;25.40;99.90;;;;;;20790375;28;20025;-80
2021/07/29 12:05:27;;;;;;;;;;;24.80;99.90;;;;;;20772675;28;20041;-79
2021/07/29 12:15:28;;;;;;;4.40;2.67;;;25.50;99.90;;;;;;20726675;28;19917;-80
2021/07/29 12:25:31;;;;;;;;;;;25.10;99.90;;;;;;20754685;28;20065;-79
2021/07/29 12:35:32;;;;;;;4.28;2.70;;;25.50;99.90;;;;;;20754282;28;19913;-80
2021/07/29 12:45:48;;;;;;;;;;;25.40;99.90;;;;;;20753609;28;20420;-79
2021/07/29 12:55:50;;;;;;;4.85;2.70;;;26.30;99.90;;;;;;20747046;28;19917;-80
2021/07/29 13:05:51;;;;;;;5.63;3.13;;;26.90;99.90;;;;;;20745303;28;20033;-80
2021/07/29 13:15:53;;;;;;;6.82;2.75;;;26.80;99.90;;;;;;20727768;28;20034;-80
2021/07/29 13:25:54;;;;;;;6.05;2.92;;;27.00;99.90;;;;;;20741590;28;20119;-80
2021/07/29 13:35:55;;;;;;;4.70;3.08;;;25.90;99.90;;;;;;20726309;28;20026;-80
2021/07/29 13:45:56;;;;;;;5.20;3.20;;;25.50;99.90;;;;;;20743127;28;20076;-80
2021/07/29 13:55:57;;;;;;;7.55;3.53;;;26.50;99.90;;;;;;20742578;28;20038;-79
2021/07/29 14:05:59;;;;;;;;;;;26.10;99.90;;;;;;20746701;28;20101;-81
2021/07/29 14:16:00;;;;;;;;;;;26.30;99.90;;;;;;20723876;28;19936;-80
2021/07/29 14:26:02;;;;;;;4.80;3.30;;;26.50;99.90;;;;;;20729136;28;19940;-80
2021/07/29 14:36:03;;;;;;;4.18;2.85;;;26.60;99.90;;;;;;20746255;28;20076;-81
2021/07/29 14:56:18;;;;;;;3.53;2.70;;;26.30;99.90;;;;;;20721353;28;20534;-75
2021/07/29 16:08:07;;;;;;;5.75;2.90;;;26.20;99.90;;;;;;20697327;28;20034;-73
2021/07/29 16:18:08;;;;;;;3.67;3.00;;;25.70;99.90;;;;;;20699811;28;20040;-76
2021/07/29 16:28:09;;;;;;;7.38;3.20;;;25.70;99.90;;;;;;20732795;28;20039;-75
2021/07/29 16:38:09;;;;;;;5.90;3.42;;;25.70;99.90;;;;;;20724150;28;20061;-76
2021/07/29 16:48:10;;;;;;;;;;;25.30;99.90;;;;;;20705707;28;20132;-76
2021/07/29 16:58:12;;;;;;;6.97;3.37;;;25.10;99.90;;;;;;20687486;28;19921;-76
2021/07/29 17:08:12;;;;;;;5.95;3.20;;;24.90;99.90;;;;;;20695143;28;20040;-76
2021/07/29 17:18:14;;;;;;;;;;;25.00;99.90;;;;;;20655381;28;20551;-76
2021/07/29 17:28:15;;;;;;;4.05;2.97;;;24.60;99.90;;;;;;20666330;28;20020;-76
2021/07/29 17:38:15;;;;;;;4.32;3.25;;;24.60;99.90;;;;;;20729865;28;20131;-76
2021/07/29 17:48:16;;;;;;;4.90;3.60;;;24.10;99.90;;;;;;20762672;28;20038;-76
2021/07/29 17:58:17;;;;;;;4.63;3.22;;;24.40;99.90;;;;;;20647676;28;20030;-76
2021/07/29 18:08:18;;;;;;;5.15;3.28;;;24.10;99.90;;;;;;20647575;28;20030;-76
2021/07/29 18:18:19;;;;;;;5.30;3.77;;;23.80;99.90;;;;;;20718110;28;20026;-76
2021/07/29 18:28:20;;;;;;;8.13;3.38;;;23.00;99.90;;;;;;20691413;28;20284;-77
2021/07/29 18:38:21;;;;;;;10.20;3.90;;;22.30;99.90;;;;;;20733614;28;20037;-77
2021/07/29 18:48:22;;;;;;;5.37;3.67;;;21.60;99.90;;;;;;20726454;28;20046;-77
2021/07/29 18:58:22;;;;;;;6.43;3.97;;;20.90;99.90;;;;;;20669431;28;20037;-76
2021/07/29 19:08:23;;;;;;;6.33;4.00;;;20.70;99.90;;;;;;20707684;28;20044;-76
2021/07/29 19:18:24;;;;;;;6.83;4.17;;;20.60;99.90;;;;;;20678156;28;20038;-76
2021/07/29 19:28:25;;;;;;;14.57;4.27;;;20.10;99.90;;;;;;20705843;28;20171;-76
2021/07/29 19:38:26;;;;;;;7.63;4.50;;;19.80;99.90;;;;;;20710774;28;20552;-76
2021/07/29 19:48:27;;;;;;;6.23;3.80;;;19.60;99.90;;;;;;20664420;28;1144019;-77
2021/07/29 19:58:27;;;;;;;7.33;4.20;;;19.60;99.90;;;;;;20703847;28;20026;-77
2021/07/29 20:08:29;;;;;;;6.10;3.87;;;19.10;99.90;;;;;;20755342;28;20531;-77
2021/07/29 20:18:29;;;;;;;8.97;4.60;;;18.70;99.90;;;;;;20782603;28;20114;-77
2021/07/29 20:28:30;;;;;;;7.40;4.60;;;18.50;99.90;;;;;;20723882;28;20475;-76
2021/07/29 20:38:31;;;;;;;8.40;4.77;;;18.40;99.90;;;;;;20730661;28;20033;-76
2021/07/29 20:48:32;;;;;;;11.53;5.10;;;18.20;99.90;;;;;;20709724;23;20046;-77
2021/07/29 20:58:33;;;;;;;9.80;4.73;;;17.80;99.90;;;;;;20739646;28;20034;-77
2021/07/29 21:08:34;;;;;;;9.80;5.03;;;17.60;99.90;;;;;;20772058;28;20036;-77
2021/07/29 21:18:35;;;;;;;12.10;4.50;;;17.40;99.90;;;;;;20739883;28;20128;-77
2021/07/29 21:28:35;;;;;;;11.30;4.97;;;17.50;99.90;;;;;;20735296;28;20033;-79
2021/07/29 21:38:36;;;;;;;8.10;4.90;;;17.60;99.90;;;;;;20747546;28;20024;-78
2021/07/29 21:48:37;;;;;;;8.90;4.70;;;17.60;99.90;;;;;;20711653;28;20022;-78
2021/07/29 21:58:38;;;;;;;9.10;4.63;;;17.20;99.90;;;;;;20704329;28;20022;-77
2021/07/29 22:08:39;;;;;;;7.83;4.53;;;16.80;99.90;;;;;;20704509;28;20444;-78
2021/07/29 22:18:40;;;;;;;12.73;5.27;;;16.90;99.90;;;;;;20746112;28;20026;-79
2021/07/29 22:28:42;;;;;;;6.80;4.67;;;16.90;99.90;;;;;;20738370;28;20037;-78
2021/07/29 22:38:42;;;;;;;;;;;17.00;99.90;;;;;;20767401;28;20030;-78
2021/07/29 22:48:43;;;;;;;7.60;5.10;;;16.80;99.90;;;;;;20781132;28;19929;-78
2021/07/29 22:58:44;;;;;;;9.27;4.80;;;16.80;99.90;;;;;;20763164;28;20782;-78
2021/07/29 23:08:45;;;;;;;9.23;4.63;;;16.40;99.90;;;;;;20755423;28;20041;-78
2021/07/29 23:18:46;;;;;;;9.10;4.83;;;16.10;99.90;;;;;;20756891;28;20026;-78
2021/07/29 23:28:47;;;;;;;11.77;4.90;;;15.90;99.90;;;;;;20756643;28;20033;-77
2021/07/29 23:38:47;;;;;;;8.60;5.40;;;16.00;99.90;;;;;;20756749;28;20048;-78
2021/07/29 23:48:48;;;;;;;9.97;5.23;;;16.10;99.90;;;;;;20752570;28;20033;-78
2021/07/29 23:58:49;;;;;;;9.47;5.50;;;15.80;99.90;;;;;;20739087;28;20033;-78
